createdAt,value
2017-06-29T00:01:36.172Z,44.83
2017-06-29T00:04:05.587Z,42.80
2017-06-29T00:06:35.778Z,43.20
2017-06-29T00:09:04.844Z,44.17
2017-06-29T00:11:34.285Z,43.13
2017-06-29T00:14:03.693Z,45.13
2017-06-29T00:16:32.964Z,46.57
2017-06-29T00:19:02.358Z,47.20
2017-06-29T00:21:31.792Z,49.23
2017-06-29T00:24:01.216Z,44.77
2017-06-29T00:26:31.397Z,46.00
2017-06-29T00:29:00.814Z,49.03
2017-06-29T00:31:30.245Z,46.80
2017-06-29T00:33:59.658Z,44.37
2017-06-29T00:36:29.642Z,45.63
2017-06-29T00:38:59.051Z,42.37
2017-06-29T00:41:28.463Z,44.63
2017-06-29T00:43:57.893Z,43.47
2017-06-29T00:46:28.084Z,46.17
2017-06-29T00:48:57.498Z,43.23
2017-06-29T00:51:26.911Z,46.80
2017-06-29T00:53:57.092Z,47.80
2017-06-29T00:56:26.515Z,45.87
2017-06-29T00:58:55.922Z,46.27
2017-06-29T01:01:25.345Z,44.90
2017-06-29T01:03:55.530Z,42.77
2017-06-29T01:06:24.973Z,46.63
2017-06-29T01:08:54.417Z,48.73
2017-06-29T01:11:23.824Z,48.70
2017-06-29T01:13:53.247Z,45.67
2017-06-29T01:16:22.646Z,48.20
2017-06-29T01:18:52.070Z,47.40
2017-06-29T01:21:21.161Z,46.50
2017-06-29T01:23:50.574Z,47.53
2017-06-29T01:26:19.997Z,45.33
2017-06-29T01:28:50.169Z,43.90
2017-06-29T01:31:19.704Z,43.97
2017-06-29T01:33:49.101Z,46.07
2017-06-29T01:36:18.322Z,46.10
2017-06-29T01:38:47.542Z,45.20
2017-06-29T01:41:16.967Z,44.30
2017-06-29T01:43:46.380Z,43.23
2017-06-29T01:46:15.810Z,44.10
2017-06-29T01:48:44.865Z,46.00
2017-06-29T01:51:13.966Z,46.57
2017-06-29T01:53:43.420Z,49.27
2017-06-29T01:56:12.138Z,49.43
2017-06-29T01:58:43.637Z,48.13
2017-06-29T02:01:13.071Z,47.37
2017-06-29T02:03:42.899Z,45.90
2017-06-29T02:06:11.418Z,44.30
2017-06-29T02:08:41.298Z,45.97
2017-06-29T02:11:10.710Z,44.80
2017-06-29T02:13:40.163Z,43.30
2017-06-29T02:16:09.562Z,44.63
2017-06-29T02:18:38.994Z,46.80
2017-06-29T02:21:08.197Z,45.00
2017-06-29T02:23:37.635Z,44.70
2017-06-29T02:26:07.056Z,40.70
2017-06-29T02:28:36.913Z,42.97
2017-06-29T02:31:06.318Z,44.50
2017-06-29T02:33:35.729Z,56.97
2017-06-29T02:36:05.152Z,45.83
2017-06-29T02:38:34.374Z,42.30
2017-06-29T02:41:04.548Z,43.97
2017-06-29T02:43:33.970Z,43.73
2017-06-29T02:46:03.381Z,45.03
2017-06-29T02:48:32.796Z,47.93
2017-06-29T02:51:02.787Z,45.27
2017-06-29T02:53:32.200Z,48.57
2017-06-29T02:56:01.622Z,48.70
2017-06-29T02:58:31.605Z,48.10
2017-06-29T03:01:01.013Z,43.30
2017-06-29T03:03:30.409Z,45.13
2017-06-29T03:05:59.834Z,45.03
2017-06-29T03:08:29.226Z,40.50
2017-06-29T03:10:58.645Z,42.20
2017-06-29T03:13:28.824Z,43.73
2017-06-29T03:15:58.247Z,47.30
2017-06-29T03:18:27.660Z,45.43
2017-06-29T03:20:57.069Z,41.03
2017-06-29T03:23:26.489Z,44.20
2017-06-29T03:25:55.913Z,48.07
2017-06-29T03:28:25.349Z,47.90
2017-06-29T03:30:55.545Z,45.07
2017-06-29T03:33:25.026Z,46.57
2017-06-29T03:35:54.479Z,45.10
2017-06-29T03:38:23.887Z,45.50
2017-06-29T03:40:53.294Z,49.17
2017-06-29T03:43:22.715Z,49.20
2017-06-29T03:45:52.114Z,50.40
2017-06-29T03:48:21.555Z,49.07
2017-06-29T03:50:51.512Z,50.23
2017-06-29T03:53:20.934Z,49.27
2017-06-29T03:55:50.362Z,50.33
2017-06-29T03:58:20.562Z,50.03
2017-06-29T04:00:49.966Z,47.20
2017-06-29T04:03:19.412Z,47.43
2017-06-29T04:05:48.808Z,52.77
2017-06-29T04:08:18.243Z,46.53
2017-06-29T04:10:47.662Z,50.73
2017-06-29T04:13:16.892Z,52.13
2017-06-29T04:15:47.219Z,51.70
2017-06-29T04:18:16.660Z,49.03
2017-06-29T04:20:46.054Z,52.83
2017-06-29T04:23:15.490Z,51.03
2017-06-29T04:25:45.018Z,50.27
2017-06-29T04:28:14.408Z,51.50
2017-06-29T04:30:43.634Z,47.77
2017-06-29T04:33:13.616Z,51.30
2017-06-29T04:35:43.031Z,45.07
2017-06-29T04:38:12.439Z,48.40
2017-06-29T04:40:41.918Z,48.60
2017-06-29T04:43:11.314Z,49.27
2017-06-29T04:45:40.732Z,52.97
2017-06-29T04:48:10.138Z,58.47
2017-06-29T04:50:39.563Z,50.73
2017-06-29T04:53:08.981Z,49.03
2017-06-29T04:55:39.162Z,51.90
2017-06-29T04:58:08.570Z,53.43
2017-06-29T05:00:37.989Z,52.87
2017-06-29T05:03:07.392Z,50.17
2017-06-29T05:05:37.020Z,51.77
2017-06-29T05:08:06.439Z,53.77
2017-06-29T05:10:35.889Z,51.60
2017-06-29T05:13:05.417Z,51.00
2017-06-29T05:15:35.660Z,54.43
2017-06-29T05:18:05.274Z,53.67
2017-06-29T05:20:35.575Z,51.83
2017-06-29T05:23:05.826Z,52.40
2017-06-29T05:25:35.280Z,52.67
2017-06-29T05:28:04.695Z,53.00
2017-06-29T05:30:34.168Z,54.30
2017-06-29T05:33:03.576Z,55.00
2017-06-29T05:35:32.989Z,55.70
2017-06-29T05:38:02.447Z,56.87
2017-06-29T05:40:32.605Z,58.27
2017-06-29T05:43:02.021Z,57.70
2017-06-29T05:45:31.429Z,58.30
2017-06-29T05:48:00.861Z,59.07
2017-06-29T05:50:31.040Z,57.30
2017-06-29T05:53:00.495Z,53.60
2017-06-29T05:55:30.678Z,52.47
2017-06-29T05:58:00.105Z,54.60
2017-06-29T06:00:30.305Z,52.70
2017-06-29T06:02:59.517Z,52.63
2017-06-29T06:05:28.950Z,50.80
2017-06-29T06:07:58.366Z,55.67
2017-06-29T06:10:27.810Z,72.80
2017-06-29T06:12:57.235Z,53.83
2017-06-29T06:15:26.645Z,49.50
2017-06-29T06:17:56.815Z,51.93
2017-06-29T06:20:26.247Z,53.20
2017-06-29T06:22:55.646Z,51.27
2017-06-29T06:25:25.075Z,52.27
2017-06-29T06:27:54.474Z,50.47
2017-06-29T06:30:23.907Z,50.57
2017-06-29T06:32:53.314Z,48.20
2017-06-29T06:35:22.735Z,47.50
2017-06-29T06:37:52.150Z,46.77
2017-06-29T06:40:21.553Z,46.03
2017-06-29T06:42:50.945Z,43.57
2017-06-29T06:45:20.354Z,45.07
2017-06-29T06:47:49.799Z,45.40
2017-06-29T06:50:19.975Z,45.70
2017-06-29T06:52:49.390Z,47.90
2017-06-29T06:55:18.446Z,45.63
2017-06-29T06:57:47.866Z,46.03
2017-06-29T07:00:17.273Z,52.77
2017-06-29T07:02:46.706Z,41.50
2017-06-29T07:05:16.124Z,40.13
2017-06-29T07:07:46.309Z,38.30
2017-06-29T07:10:15.716Z,38.37
2017-06-29T07:12:45.140Z,34.20
2017-06-29T07:15:15.309Z,30.10
2017-06-29T07:17:44.759Z,28.70
2017-06-29T07:20:14.148Z,27.40
2017-06-29T07:22:43.586Z,31.20
2017-06-29T07:25:13.782Z,31.40
2017-06-29T07:27:43.979Z,29.03
2017-06-29T07:30:13.384Z,29.53
2017-06-29T07:32:42.816Z,30.17
2017-06-29T07:35:12.232Z,31.17
2017-06-29T07:37:42.407Z,29.30
2017-06-29T07:40:11.826Z,35.17
2017-06-29T07:42:41.233Z,32.70
2017-06-29T07:45:10.664Z,31.73
2017-06-29T07:47:40.819Z,32.20
2017-06-29T07:50:10.237Z,39.30
2017-06-29T07:52:39.655Z,46.53
2017-06-29T07:55:09.079Z,45.10
2017-06-29T07:57:38.482Z,45.93
2017-06-29T08:00:07.896Z,55.60
2017-06-29T08:02:38.066Z,46.97
2017-06-29T08:05:07.485Z,49.43
2017-06-29T08:07:36.908Z,48.87
2017-06-29T08:10:06.307Z,74.43
2017-06-29T08:12:35.736Z,49.10
2017-06-29T08:15:05.909Z,47.17
2017-06-29T08:17:35.318Z,50.20
2017-06-29T08:20:04.738Z,48.37
2017-06-29T08:22:34.167Z,49.33
2017-06-29T08:25:04.341Z,45.77
2017-06-29T08:27:33.758Z,49.10
2017-06-29T08:30:03.171Z,48.73
2017-06-29T08:32:32.594Z,54.00
2017-06-29T08:35:02.775Z,49.73
2017-06-29T08:37:32.206Z,50.17
2017-06-29T08:40:01.712Z,49.67
2017-06-29T08:42:31.130Z,51.80
2017-06-29T08:45:01.313Z,51.30
2017-06-29T08:47:30.735Z,50.00
2017-06-29T08:50:00.130Z,49.67
2017-06-29T08:52:29.561Z,51.50
2017-06-29T08:54:59.812Z,47.90
2017-06-29T08:57:29.292Z,49.20
2017-06-29T08:59:59.462Z,48.00
2017-06-29T09:02:28.897Z,51.50
2017-06-29T09:04:58.285Z,51.13
2017-06-29T09:07:27.708Z,48.90
2017-06-29T09:09:57.128Z,50.13
2017-06-29T09:12:27.296Z,48.20
2017-06-29T09:14:56.715Z,47.30
2017-06-29T09:17:26.129Z,45.77
2017-06-29T09:19:55.568Z,48.73
2017-06-29T09:22:25.764Z,50.57
2017-06-29T09:24:55.174Z,48.63
2017-06-29T09:27:25.359Z,48.77
2017-06-29T09:29:54.773Z,57.60
2017-06-29T09:32:24.193Z,55.10
2017-06-29T09:34:53.613Z,61.27
2017-06-29T09:37:23.796Z,58.10
2017-06-29T09:39:53.215Z,60.80
2017-06-29T09:42:22.627Z,63.87
2017-06-29T09:44:52.042Z,66.63
2017-06-29T09:47:22.213Z,64.40
2017-06-29T09:49:51.655Z,67.40
2017-06-29T09:52:20.875Z,64.03
2017-06-29T09:54:51.077Z,70.70
2017-06-29T09:57:20.481Z,74.53
2017-06-29T09:59:50.684Z,67.50
2017-06-29T10:02:20.090Z,67.50
2017-06-29T10:04:49.505Z,63.10
2017-06-29T10:07:18.934Z,70.27
2017-06-29T10:09:48.356Z,74.77
2017-06-29T10:12:17.782Z,68.33
2017-06-29T10:14:47.203Z,71.20
2017-06-29T10:17:16.665Z,72.80
2017-06-29T10:19:46.074Z,78.13
2017-06-29T10:22:15.508Z,65.10
2017-06-29T10:24:44.913Z,67.53
2017-06-29T10:27:14.325Z,64.43
2017-06-29T10:29:43.735Z,31.30
2017-06-29T10:32:13.167Z,24.00
2017-06-29T10:34:42.581Z,26.50
2017-06-29T10:37:12.009Z,19.70
2017-06-29T10:39:41.431Z,20.23
2017-06-29T10:42:10.895Z,22.30
2017-06-29T10:44:40.292Z,24.90
2017-06-29T10:47:10.487Z,39.50
2017-06-29T10:49:39.899Z,50.90
2017-06-29T10:52:10.082Z,28.67
2017-06-29T10:54:39.494Z,31.80
2017-06-29T10:57:08.918Z,47.17
2017-06-29T10:59:38.364Z,33.47
2017-06-29T11:02:07.764Z,32.13
2017-06-29T11:04:37.199Z,37.00
2017-06-29T11:07:06.615Z,33.50
2017-06-29T11:09:36.038Z,35.60
2017-06-29T11:12:05.451Z,42.47
2017-06-29T11:14:34.879Z,42.97
2017-06-29T11:17:04.278Z,40.77
2017-06-29T11:19:33.711Z,44.50
2017-06-29T11:22:03.110Z,47.37
2017-06-29T11:24:32.526Z,45.57
2017-06-29T11:27:01.930Z,45.80
2017-06-29T11:29:31.399Z,44.50
2017-06-29T11:32:00.799Z,46.70
2017-06-29T11:34:30.229Z,66.43
2017-06-29T11:36:59.635Z,46.00
2017-06-29T11:39:29.068Z,46.87
2017-06-29T11:41:58.465Z,46.63
2017-06-29T11:44:27.866Z,49.17
2017-06-29T11:46:57.300Z,46.33
2017-06-29T11:49:26.715Z,43.17
2017-06-29T11:51:56.942Z,43.10
2017-06-29T11:54:27.122Z,37.90
2017-06-29T11:56:56.546Z,33.90
2017-06-29T11:59:26.731Z,34.93
2017-06-29T12:01:56.161Z,32.00
2017-06-29T12:04:26.321Z,33.37
2017-06-29T12:06:55.753Z,33.60
2017-06-29T12:09:25.165Z,33.50
2017-06-29T12:11:54.654Z,34.00
2017-06-29T12:14:24.839Z,32.47
2017-06-29T12:16:54.285Z,30.27
2017-06-29T12:19:24.448Z,25.93
2017-06-29T12:21:53.875Z,23.30
2017-06-29T12:24:23.282Z,16.90
2017-06-29T12:26:52.734Z,14.73
2017-06-29T12:29:22.839Z,13.60
2017-06-29T12:31:53.010Z,15.33
2017-06-29T12:34:22.433Z,16.10
2017-06-29T12:36:51.832Z,18.50
2017-06-29T12:39:21.264Z,19.17
2017-06-29T12:41:51.442Z,16.90
2017-06-29T12:44:20.863Z,17.20
2017-06-29T12:46:50.274Z,15.33
2017-06-29T12:49:19.987Z,17.47
2017-06-29T12:51:49.383Z,16.50
2017-06-29T12:54:18.809Z,16.43
2017-06-29T12:56:48.222Z,16.20
2017-06-29T12:59:17.715Z,17.53
2017-06-29T13:01:47.171Z,15.80
2017-06-29T13:04:16.619Z,15.50
2017-06-29T13:06:46.046Z,15.27
2017-06-29T13:09:15.493Z,14.50
2017-06-29T13:11:44.948Z,15.00
2017-06-29T13:14:13.819Z,26.60
2017-06-29T13:16:42.919Z,9.57
2017-06-29T13:19:12.368Z,7.50
2017-06-29T13:21:41.822Z,6.17
2017-06-29T13:24:12.012Z,8.07
2017-06-29T13:26:41.465Z,7.50
2017-06-29T13:29:10.878Z,7.83
2017-06-29T13:31:40.302Z,7.07
2017-06-29T13:34:10.518Z,9.50
2017-06-29T13:36:41.025Z,8.40
2017-06-29T13:39:10.582Z,10.13
2017-06-29T13:41:40.015Z,10.03
2017-06-29T13:44:09.454Z,11.90
2017-06-29T13:46:38.909Z,12.00
2017-06-29T13:49:08.319Z,12.90
2017-06-29T13:51:37.825Z,12.10
2017-06-29T13:54:07.266Z,11.33
2017-06-29T13:56:36.681Z,11.50
2017-06-29T13:59:06.897Z,10.60
2017-06-29T14:01:36.305Z,9.03
2017-06-29T14:04:05.924Z,8.73
2017-06-29T14:06:35.340Z,9.13
2017-06-29T14:09:04.068Z,7.47
2017-06-29T14:11:33.478Z,6.77
2017-06-29T14:14:02.912Z,9.20
2017-06-29T14:16:32.323Z,6.77
2017-06-29T14:19:02.527Z,5.90
2017-06-29T14:21:31.922Z,5.20
2017-06-29T14:24:01.358Z,5.40
2017-06-29T14:26:31.548Z,5.80
2017-06-29T14:29:00.973Z,5.53
2017-06-29T14:31:30.385Z,6.00
2017-06-29T14:34:00.387Z,6.00
2017-06-29T14:36:29.784Z,6.57
2017-06-29T14:38:59.211Z,5.70
2017-06-29T14:41:29.407Z,4.77
2017-06-29T14:43:58.851Z,6.40
2017-06-29T14:46:29.023Z,6.90
2017-06-29T14:48:58.495Z,6.57
2017-06-29T14:51:27.903Z,7.30
2017-06-29T14:53:57.352Z,7.90
2017-06-29T14:56:26.759Z,7.93
2017-06-29T14:58:56.181Z,10.07
2017-06-29T15:01:26.394Z,9.67
2017-06-29T15:03:55.806Z,9.57
2017-06-29T15:06:26.010Z,10.83
2017-06-29T15:08:55.431Z,11.37
2017-06-29T15:11:25.642Z,10.73
2017-06-29T15:13:55.076Z,12.50
2017-06-29T15:16:24.519Z,11.87
2017-06-29T15:18:53.938Z,13.20
2017-06-29T15:21:24.183Z,13.20
2017-06-29T15:23:53.622Z,13.57
2017-06-29T15:26:23.058Z,11.83
2017-06-29T15:28:53.418Z,10.60
2017-06-29T15:31:22.931Z,7.60
2017-06-29T15:33:52.450Z,10.97
2017-06-29T15:36:21.535Z,9.33
2017-06-29T15:38:50.955Z,9.53
2017-06-29T15:41:20.385Z,10.97
2017-06-29T15:43:49.827Z,12.00
2017-06-29T15:46:20.030Z,14.43
2017-06-29T15:48:50.215Z,12.77
2017-06-29T15:51:19.670Z,10.87
2017-06-29T15:53:50.149Z,11.82
2017-06-29T15:56:19.563Z,11.50
2017-06-29T15:58:49.805Z,23.00
2017-06-29T16:01:19.221Z,12.33
2017-06-29T16:03:48.666Z,13.70
2017-06-29T16:06:18.096Z,11.23
2017-06-29T16:08:47.536Z,12.97
2017-06-29T16:11:16.984Z,10.10
2017-06-29T16:13:46.476Z,10.77
2017-06-29T16:16:15.935Z,11.43
2017-06-29T16:18:46.162Z,10.20
2017-06-29T16:21:15.635Z,9.70
2017-06-29T16:23:45.072Z,10.50
2017-06-29T16:26:14.498Z,13.03
2017-06-29T16:28:43.967Z,12.10
2017-06-29T16:31:14.270Z,20.70
2017-06-29T16:33:43.716Z,11.87
2017-06-29T16:36:13.157Z,20.83
2017-06-29T16:38:42.615Z,12.60
2017-06-29T16:41:12.053Z,11.27
2017-06-29T16:43:41.481Z,12.70
2017-06-29T16:46:11.033Z,12.50
2017-06-29T16:48:40.492Z,12.17
2017-06-29T16:51:09.934Z,16.40
2017-06-29T16:53:39.358Z,13.17
2017-06-29T16:56:08.819Z,12.20
2017-06-29T16:58:38.528Z,10.68
2017-06-29T17:01:07.986Z,9.77
2017-06-29T17:03:38.454Z,11.02
2017-06-29T17:06:07.926Z,12.90
2017-06-29T17:08:37.363Z,9.43
2017-06-29T17:11:06.832Z,10.70
2017-06-29T17:13:36.333Z,9.57
2017-06-29T17:16:05.775Z,10.43
2017-06-29T17:18:35.512Z,15.10
2017-06-29T17:21:05.744Z,12.50
2017-06-29T17:23:35.330Z,10.93
2017-06-29T17:26:05.039Z,11.40
2017-06-29T17:28:35.272Z,39.87
2017-06-29T17:31:05.436Z,10.10
2017-06-29T17:33:34.880Z,12.00
2017-06-29T17:36:04.305Z,11.73
2017-06-29T17:38:34.515Z,10.60
2017-06-29T17:41:04.717Z,10.47
2017-06-29T17:43:34.163Z,10.50
2017-06-29T17:46:03.602Z,9.80
2017-06-29T17:48:33.309Z,12.90
2017-06-29T17:51:02.721Z,11.30
2017-06-29T17:53:32.175Z,9.40
2017-06-29T17:56:02.359Z,9.03
2017-06-29T17:58:31.795Z,8.80
2017-06-29T18:01:01.498Z,10.85
2017-06-29T18:03:31.708Z,9.47
2017-06-29T18:06:01.458Z,10.32
2017-06-29T18:08:31.177Z,10.75
2017-06-29T18:11:00.637Z,8.57
2017-06-29T18:13:30.327Z,7.32
2017-06-29T18:15:59.768Z,8.40
2017-06-29T18:18:29.953Z,9.00
2017-06-29T18:20:59.433Z,22.40
2017-06-29T18:23:28.867Z,11.40
2017-06-29T18:25:58.318Z,9.87
2017-06-29T18:28:27.727Z,10.47
2017-06-29T18:30:57.156Z,8.47
2017-06-29T18:33:26.848Z,8.45
2017-06-29T18:35:56.302Z,10.53
2017-06-29T18:38:25.332Z,6.63
2017-06-29T18:40:54.781Z,8.23
2017-06-29T18:43:24.973Z,10.33
2017-06-29T18:45:54.707Z,8.32
2017-06-29T18:48:24.885Z,8.20
2017-06-29T18:50:54.319Z,9.80
2017-06-29T18:53:24.034Z,10.70
2017-06-29T18:55:53.471Z,23.17
2017-06-29T18:58:22.920Z,9.40
2017-06-29T19:00:52.661Z,8.60
2017-06-29T19:03:22.137Z,11.80
2017-06-29T19:05:51.551Z,9.37
2017-06-29T19:08:21.077Z,14.67
2017-06-29T19:10:50.548Z,14.03
2017-06-29T19:13:20.229Z,9.60
2017-06-29T19:15:49.811Z,10.57
2017-06-29T19:18:19.246Z,9.17
2017-06-29T19:20:48.968Z,9.95
2017-06-29T19:23:18.676Z,9.57
2017-06-29T19:25:48.356Z,8.20
2017-06-29T19:28:17.921Z,12.10
2017-06-29T19:30:47.805Z,11.05
2017-06-29T19:33:17.998Z,12.50
2017-06-29T19:35:47.421Z,17.40
2017-06-29T19:38:17.132Z,13.70
2017-06-29T19:40:47.514Z,11.83
2017-06-29T19:43:16.887Z,12.18
2017-06-29T19:45:47.407Z,11.60
2017-06-29T19:48:16.765Z,12.23
2017-06-29T19:50:46.201Z,10.30
2017-06-29T19:53:15.941Z,13.45
2017-06-29T19:55:46.393Z,6.75
2017-06-29T19:58:16.229Z,4.62
2017-06-29T20:00:45.972Z,5.62
2017-06-29T20:03:15.753Z,6.20
2017-06-29T20:05:45.447Z,6.15
2017-06-29T20:08:15.131Z,5.70
2017-06-29T20:10:45.594Z,7.18
2017-06-29T20:13:15.275Z,6.93
2017-06-29T20:15:45.729Z,6.62
2017-06-29T20:18:15.398Z,7.57
2017-06-29T20:20:45.861Z,9.40
2017-06-29T20:23:15.594Z,7.85
2017-06-29T20:25:45.305Z,8.40
2017-06-29T20:28:14.978Z,7.50
2017-06-29T20:30:44.708Z,10.15
2017-06-29T20:33:14.429Z,10.40
2017-06-29T20:35:44.120Z,8.02
2017-06-29T20:38:13.829Z,9.63
2017-06-29T20:40:43.533Z,8.65
2017-06-29T20:43:13.289Z,9.23
2017-06-29T20:45:43.080Z,10.43
2017-06-29T20:48:12.798Z,9.55
2017-06-29T20:50:42.478Z,9.77
2017-06-29T20:53:12.194Z,10.27
2017-06-29T20:55:41.886Z,9.60
2017-06-29T20:58:11.618Z,11.68
2017-06-29T21:00:42.098Z,12.07
2017-06-29T21:03:11.820Z,10.93
2017-06-29T21:05:41.542Z,13.85
2017-06-29T21:08:11.250Z,10.60
2017-06-29T21:10:40.988Z,18.17
2017-06-29T21:13:10.722Z,12.18
2017-06-29T21:15:40.410Z,11.98
2017-06-29T21:18:10.886Z,11.82
2017-06-29T21:20:40.603Z,12.13
2017-06-29T21:23:10.339Z,11.02
2017-06-29T21:25:40.048Z,10.25
2017-06-29T21:28:09.849Z,10.85
2017-06-29T21:30:39.534Z,11.25
2017-06-29T21:33:09.260Z,10.65
2017-06-29T21:35:39.546Z,13.27
2017-06-29T21:38:09.077Z,12.00
2017-06-29T21:40:38.595Z,12.50
2017-06-29T21:43:09.080Z,11.63
2017-06-29T21:45:38.809Z,11.38
2017-06-29T21:48:08.162Z,11.15
2017-06-29T21:50:37.942Z,11.95
2017-06-29T21:53:07.631Z,12.95
2017-06-29T21:55:37.362Z,12.48
2017-06-29T21:58:07.060Z,12.90
2017-06-29T22:00:36.766Z,13.23
2017-06-29T22:03:06.279Z,12.30
2017-06-29T22:05:35.990Z,10.85
2017-06-29T22:08:05.683Z,11.40
2017-06-29T22:10:35.377Z,10.23
2017-06-29T22:13:05.059Z,10.68
2017-06-29T22:15:34.744Z,9.57
2017-06-29T22:18:05.293Z,11.38
2017-06-29T22:20:35.014Z,10.45
2017-06-29T22:23:04.703Z,11.12
2017-06-29T22:25:35.167Z,13.70
2017-06-29T22:28:04.878Z,11.70
2017-06-29T22:30:34.599Z,13.60
2017-06-29T22:33:04.303Z,11.23
2017-06-29T22:35:33.625Z,11.02
2017-06-29T22:38:03.372Z,10.60
2017-06-29T22:40:33.807Z,13.02
2017-06-29T22:43:03.629Z,11.98
2017-06-29T22:45:33.318Z,11.52
2017-06-29T22:48:03.041Z,11.50
2017-06-29T22:50:32.716Z,11.10
2017-06-29T22:53:02.455Z,11.43
2017-06-29T22:55:32.915Z,12.20
2017-06-29T22:58:02.622Z,11.05
2017-06-29T23:00:33.055Z,9.90
2017-06-29T23:03:02.366Z,12.88
2017-06-29T23:05:32.051Z,8.88
2017-06-29T23:08:01.760Z,12.52
2017-06-29T23:10:32.206Z,10.93
2017-06-29T23:13:01.926Z,11.00
2017-06-29T23:15:31.652Z,10.73
2017-06-29T23:18:01.345Z,11.93
2017-06-29T23:20:31.044Z,11.43
2017-06-29T23:23:00.737Z,12.65
2017-06-29T23:25:31.193Z,12.23
2017-06-29T23:28:00.870Z,11.98
2017-06-29T23:30:31.338Z,11.70
2017-06-29T23:33:01.027Z,10.75
2017-06-29T23:35:30.738Z,12.70
2017-06-29T23:38:00.409Z,13.23
2017-06-29T23:40:31.027Z,11.60
2017-06-29T23:43:00.720Z,12.65
2017-06-29T23:45:30.452Z,10.27
2017-06-29T23:48:00.182Z,13.50
2017-06-29T23:50:29.883Z,11.73
2017-06-29T23:52:59.581Z,12.63
2017-06-29T23:55:29.321Z,12.07
2017-06-29T23:57:59.762Z,11.50
